»·PEaware :: UAL941 EGLL-KLAX

UAL941 :: EGLL-KLAX

FLIGHT INFORMATION

Flight Status: Arrived
Operator:
United Airlines
More flights by this operator :: More flights under this callsign
Pilot: James H. (174)
Aircraft: BOEING 747-400 (WINGLETS)
(B744)
More flights by this aircraft type
Origin: EGLL Heathrow
United Kingdom
Destination: KLAX Los Angeles Intl
United States
More flights between these airports :: More routes between these airports
Route: +CPT UL9 KENET N14 BAKUR PIKIL 58N020W 60N030W 61N040W 60N050W SAVRY N806A LAKES GRAND YRL HML J107 DPR RAP EKR J100 SAKES Q70 BAWER Q96 GUNTR Q73 ZZYZX Q98 HAKMN ANJLL4
File this flight plan on PilotEdge
Remarks: PBN / A1B1C1D1L1O1S1 NAV / RNVD1E2A1 DOF / 201116 REG / N104UA EET / EISN0032 EGGX0101 58N020W0147 CZQX0226 61N040W0300 BGGL0304 60N050W0336 CZQX0342 CZUL0420 CZWG0541 KZMP0713 KZDV0754 KZLC0858 KZLA0917 RVR / 75 OPR / UAL
Altitude:
(Current/Filed)
32,000ft
Speed:
(Current/Filed)
508kts
Departed: 16-Nov-20 04:04 PM
Arrived: 16-Nov-20 06:31 PM
Distance/Time
Traveled:
4726nm/2:27
Distance/Time
To Go:
Arrived

Flight Plot

Page will automatically refresh every two minutes.

Flight plan parsing failed; only flown route is shown


Map Options




Map Legend


Flown Route
Filed Route
Departure Airport
Arrival Airport
Navaid (VOR, NDB)
Fix

Horizontal Profiles

Position Reports

Time Latitude Longitude Heading Altitude Ground
Speed
16-Nov-20 16:02 45.925810 -100.760245 235 32332ft 471kts
16-Nov-20 16:03 45.823190 -100.877860 234 32317ft 472kts
16-Nov-20 16:04 45.720895 -100.994539 234 32312ft 470kts
16-Nov-20 16:05 45.618183 -101.111130 234 32307ft 470kts
16-Nov-20 16:06 45.515507 -101.227123 234 32320ft 471kts
16-Nov-20 16:07 45.412766 -101.342638 234 32319ft 469kts
16-Nov-20 16:08 45.310424 -101.457507 234 32320ft 469kts
16-Nov-20 16:09 45.207787 -101.571849 233 32319ft 470kts
16-Nov-20 16:10 45.104727 -101.685785 233 32320ft 468kts
16-Nov-20 16:11 45.004712 -101.802596 236 32320ft 462kts
16-Nov-20 16:12 44.906848 -101.920245 235 32320ft 461kts
16-Nov-20 16:13 44.809032 -102.036824 235 32321ft 460kts
16-Nov-20 16:15 44.712131 -102.153040 235 32323ft 458kts
16-Nov-20 16:16 44.614367 -102.268933 235 32325ft 458kts
16-Nov-20 16:17 44.516871 -102.383873 235 32329ft 459kts
16-Nov-20 16:18 44.419221 -102.498473 234 32330ft 457kts
16-Nov-20 16:19 44.321347 -102.612822 234 32331ft 457kts
16-Nov-20 16:20 44.223471 -102.726691 234 32330ft 458kts
16-Nov-20 16:21 44.125639 -102.840396 234 32330ft 459kts
16-Nov-20 16:22 44.025541 -102.955443 231 32330ft 474kts
16-Nov-20 16:23 43.927892 -103.076423 235 32330ft 466kts
16-Nov-20 16:24 43.835660 -103.203452 234 32331ft 467kts
16-Nov-20 16:25 43.742954 -103.329323 234 32331ft 466kts
16-Nov-20 16:26 43.650903 -103.455237 234 32330ft 466kts
16-Nov-20 16:27 43.558226 -103.580686 234 32330ft 467kts
16-Nov-20 16:28 43.465049 -103.705982 234 32332ft 467kts
16-Nov-20 16:29 43.372161 -103.830278 233 32333ft 467kts
16-Nov-20 16:30 43.278632 -103.954863 233 32335ft 467kts
16-Nov-20 16:31 43.185274 -104.078661 232 32335ft 467kts
16-Nov-20 16:32 43.091824 -104.202022 232 32326ft 467kts
16-Nov-20 16:32 43.013661 -104.304784 232 32325ft 467kts
16-Nov-20 16:34 42.904105 -104.448179 232 32320ft 467kts
16-Nov-20 16:34 42.825990 -104.549964 231 32321ft 467kts
16-Nov-20 16:36 42.716053 -104.692588 231 32325ft 467kts
16-Nov-20 16:36 42.637670 -104.793826 231 32326ft 467kts
16-Nov-20 16:38 42.527306 -104.935747 231 32327ft 467kts
16-Nov-20 16:38 42.448673 -105.036422 231 32334ft 466kts
16-Nov-20 16:39 42.354170 -105.156935 230 32336ft 466kts
16-Nov-20 16:40 42.259726 -105.276850 230 32339ft 466kts
16-Nov-20 16:41 42.165002 -105.396603 230 32342ft 466kts
16-Nov-20 16:42 42.070175 -105.515967 230 32344ft 465kts
16-Nov-20 16:43 41.975643 -105.634458 229 32362ft 465kts
16-Nov-20 16:44 41.880812 -105.752816 229 32378ft 465kts
16-Nov-20 16:45 41.786004 -105.870642 229 32387ft 465kts
16-Nov-20 16:46 41.690892 -105.988349 229 32404ft 465kts
16-Nov-20 16:47 41.595798 -106.105542 229 32408ft 465kts
16-Nov-20 16:48 41.500430 -106.222571 229 32411ft 465kts
16-Nov-20 16:49 41.405084 -106.339092 229 32407ft 464kts
16-Nov-20 16:50 41.309966 -106.454857 229 32448ft 464kts
16-Nov-20 16:51 41.214492 -106.570571 228 32460ft 464kts
16-Nov-20 16:52 41.118716 -106.686173 228 32467ft 464kts
16-Nov-20 16:53 41.023288 -106.800878 228 32474ft 464kts
16-Nov-20 16:54 40.927612 -106.915418 228 32473ft 464kts
16-Nov-20 16:55 40.831546 -107.029955 228 32477ft 464kts
16-Nov-20 16:56 40.735698 -107.143768 228 32481ft 463kts
16-Nov-20 16:57 40.640059 -107.256878 228 32479ft 463kts
16-Nov-20 16:58 40.543993 -107.370036 228 32474ft 463kts
16-Nov-20 16:59 40.447588 -107.483142 228 32462ft 463kts
16-Nov-20 17:00 40.351483 -107.595448 227 32465ft 462kts
16-Nov-20 17:01 40.255674 -107.707439 227 32473ft 463kts
16-Nov-20 17:02 40.159294 -107.818935 227 32469ft 462kts
16-Nov-20 17:03 40.064792 -107.933070 235 32469ft 457kts
16-Nov-20 17:04 39.993551 -108.067984 241 32469ft 450kts
16-Nov-20 17:05 39.924332 -108.204359 241 32467ft 451kts
16-Nov-20 17:06 39.854759 -108.340489 241 32470ft 451kts
16-Nov-20 17:07 39.785301 -108.476431 240 32467ft 452kts
16-Nov-20 17:08 39.715047 -108.612540 240 32460ft 453kts
16-Nov-20 17:09 39.644605 -108.748309 240 32460ft 454kts
16-Nov-20 17:10 39.573861 -108.884058 239 32457ft 455kts
16-Nov-20 17:11 39.502677 -109.020071 239 32458ft 455kts
16-Nov-20 17:12 39.431525 -109.155442 239 32458ft 456kts
16-Nov-20 17:13 39.359972 -109.291001 239 32457ft 455kts
16-Nov-20 17:14 39.288122 -109.426546 239 32455ft 456kts
16-Nov-20 17:15 39.216254 -109.561550 238 32458ft 457kts
16-Nov-20 17:16 39.144220 -109.696306 238 32457ft 457kts
16-Nov-20 17:17 39.071896 -109.831044 238 32457ft 457kts
16-Nov-20 17:18 38.999418 -109.966021 238 32457ft 458kts
16-Nov-20 17:19 38.926566 -110.100578 237 32459ft 459kts
16-Nov-20 17:20 38.853345 -110.234896 237 32462ft 460kts
16-Nov-20 17:21 38.777841 -110.367654 235 32467ft 461kts
16-Nov-20 17:22 38.700812 -110.498961 235 32476ft 461kts
16-Nov-20 17:23 38.623655 -110.630485 235 32478ft 461kts
16-Nov-20 17:24 38.547106 -110.762209 235 32479ft 462kts
16-Nov-20 17:25 38.469954 -110.893476 234 32479ft 462kts
16-Nov-20 17:26 38.392584 -111.024437 234 32480ft 462kts
16-Nov-20 17:27 38.315056 -111.155121 234 32481ft 463kts
16-Nov-20 17:28 38.237259 -111.285730 233 32483ft 463kts
16-Nov-20 17:29 38.159173 -111.416302 233 32482ft 464kts
16-Nov-20 17:30 38.080917 -111.546639 233 32470ft 464kts
16-Nov-20 17:31 38.002443 -111.676821 233 32476ft 465kts
16-Nov-20 17:32 37.923470 -111.807316 232 32488ft 466kts
16-Nov-20 17:33 37.844327 -111.937578 232 32503ft 466kts
16-Nov-20 17:34 37.765613 -112.067191 232 32515ft 466kts
16-Nov-20 17:35 37.685956 -112.196887 232 32519ft 467kts
16-Nov-20 17:36 37.604810 -112.324666 229 32506ft 467kts
16-Nov-20 17:37 37.518312 -112.446933 228 32476ft 468kts
16-Nov-20 17:38 37.431841 -112.569930 228 32441ft 469kts
16-Nov-20 17:39 37.345581 -112.693442 228 32420ft 469kts
16-Nov-20 17:40 37.259145 -112.816275 228 32409ft 470kts
16-Nov-20 17:41 37.172228 -112.939177 228 32397ft 471kts
16-Nov-20 17:42 37.085112 -113.062384 228 32374ft 471kts
16-Nov-20 17:43 36.997846 -113.184527 227 32368ft 472kts
16-Nov-20 17:44 36.910394 -113.307666 229 32342ft 473kts
16-Nov-20 17:45 36.825503 -113.432832 229 32318ft 474kts
16-Nov-20 17:46 36.740265 -113.558453 228 32310ft 474kts
16-Nov-20 17:47 36.654018 -113.683966 228 32278ft 476kts
16-Nov-20 17:48 36.568050 -113.809320 228 32270ft 478kts
16-Nov-20 17:49 36.481585 -113.934559 228 32263ft 478kts
16-Nov-20 17:50 36.389287 -114.052957 215 32235ft 478kts
16-Nov-20 17:51 36.276465 -114.140319 210 32224ft 478kts
16-Nov-20 17:52 36.163353 -114.226518 211 32213ft 478kts
16-Nov-20 17:53 36.056587 -114.324251 224 32210ft 479kts
16-Nov-20 17:54 35.968269 -114.447543 227 32206ft 479kts
16-Nov-20 17:55 35.879223 -114.570626 227 32193ft 479kts
16-Nov-20 17:56 35.790855 -114.693121 227 32190ft 479kts
16-Nov-20 17:57 35.701660 -114.815080 226 32185ft 479kts
16-Nov-20 17:58 35.612471 -114.937232 227 32187ft 479kts
16-Nov-20 17:59 35.523256 -115.058767 227 32179ft 479kts
16-Nov-20 18:00 35.432586 -115.178091 225 32163ft 478kts
16-Nov-20 18:01 35.341393 -115.296647 226 32160ft 478kts
16-Nov-20 18:02 35.250561 -115.415285 225 32159ft 478kts
16-Nov-20 18:03 35.159209 -115.533277 225 32162ft 478kts
16-Nov-20 18:04 35.067544 -115.650840 225 32169ft 477kts
16-Nov-20 18:05 34.975861 -115.768064 226 32171ft 476kts
16-Nov-20 18:06 34.884216 -115.884803 225 32182ft 476kts
16-Nov-20 18:07 34.792230 -116.001194 225 32188ft 476kts
16-Nov-20 18:08 34.700704 -116.117460 225 32180ft 476kts
16-Nov-20 18:09 34.609279 -116.234002 226 32220ft 475kts
16-Nov-20 18:11 34.520387 -116.346591 225 32229ft 475kts
16-Nov-20 18:12 34.429540 -116.461807 229 31443ft 465kts
16-Nov-20 18:13 34.367244 -116.597489 242 28954ft 436kts
16-Nov-20 18:14 34.316611 -116.721658 242 28098ft 408kts
16-Nov-20 18:15 34.265437 -116.848874 241 25656ft 415kts
16-Nov-20 18:16 34.215586 -116.972099 242 23307ft 402kts
16-Nov-20 18:17 34.179936 -117.098465 249 20933ft 393kts
16-Nov-20 18:18 34.146218 -117.222234 248 18644ft 380kts
16-Nov-20 18:19 34.113346 -117.341133 248 16447ft 368kts
16-Nov-20 18:20 34.083424 -117.457579 250 14325ft 356kts
16-Nov-20 18:21 34.050244 -117.563683 242 12928ft 326kts
16-Nov-20 18:22 34.014986 -117.660223 243 11334ft 313kts
16-Nov-20 18:23 33.999288 -117.761715 267 9802ft 307kts
16-Nov-20 18:24 33.988538 -117.860325 261 8244ft 299kts
16-Nov-20 18:25 33.980292 -117.958618 260 6758ft 290kts
16-Nov-20 18:26 33.970671 -118.052391 262 5327ft 282kts
16-Nov-20 18:27 33.961760 -118.141724 262 3971ft 272kts
16-Nov-20 18:28 33.953196 -118.227821 262 2939ft 245kts
16-Nov-20 18:29 33.945475 -118.303503 262 1418ft 206kts
16-Nov-20 18:29 33.940526 -118.351878 262 645ft 151kts
16-Nov-20 18:31 33.935702 -118.399171 263 139ft 30kts
16-Nov-20 18:31 33.936228 -118.404670 260 139ft 16kts
16-Nov-20 18:33 33.936710 -118.409069 353 139ft 9kts
16-Nov-20 18:33 33.937947 -118.408025 85 139ft 7kts
16-Nov-20 18:35 33.938369 -118.403779 83 139ft 12kts
16-Nov-20 18:35 33.938707 -118.400764 79 139ft 9kts
16-Nov-20 18:36 33.940263 -118.399935 32 139ft 0kts
16-Nov-20 18:37 33.940263 -118.399935 32 139ft 0kts
16-Nov-20 18:38 33.940263 -118.399935 32 139ft 0kts
16-Nov-20 18:39 33.940263 -118.399935 32 139ft 0kts
16-Nov-20 18:40 33.940263 -118.399935 32 139ft 0kts
16-Nov-20 18:41 33.940263 -118.399935 32 139ft 0kts

Navigation Log

Ident Type
Flight plan parsing failed, navigation log unavailable